createdAt,value
2023-03-29T00:00:14.104Z,7.70
2023-03-29T00:03:03.970Z,8.50
2023-03-29T00:05:35.107Z,8.00
2023-03-29T00:08:04.377Z,7.20
2023-03-29T00:10:32.736Z,8.20
2023-03-29T00:13:02.062Z,7.90
2023-03-29T00:15:29.760Z,6.20
2023-03-29T00:17:58.143Z,6.50
2023-03-29T00:20:26.004Z,6.70
2023-03-29T00:22:53.695Z,8.00
2023-03-29T00:25:21.334Z,8.60
2023-03-29T00:27:49.219Z,8.50
2023-03-29T00:30:17.492Z,8.80
2023-03-29T00:32:45.991Z,11.10
2023-03-29T00:35:13.699Z,9.10
2023-03-29T00:37:41.436Z,8.40
2023-03-29T00:40:11.716Z,8.90
2023-03-29T00:42:39.342Z,8.30
2023-03-29T00:45:10.056Z,10.00
2023-03-29T00:47:41.735Z,8.60
2023-03-29T00:50:29.698Z,9.20
2023-03-29T00:53:07.191Z,8.80
2023-03-29T00:55:47.603Z,8.00
2023-03-29T00:58:20.276Z,8.70
2023-03-29T01:00:52.976Z,7.20
2023-03-29T01:03:27.436Z,8.00
2023-03-29T01:06:06.122Z,7.50
2023-03-29T01:08:41.915Z,7.60
2023-03-29T01:11:22.174Z,7.60
2023-03-29T01:14:00.149Z,8.80
2023-03-29T01:16:29.059Z,8.50
2023-03-29T01:19:00.429Z,6.90
2023-03-29T01:21:37.893Z,7.00
2023-03-29T01:24:25.304Z,7.50
2023-03-29T01:27:13.965Z,6.50
2023-03-29T01:29:51.639Z,7.10
2023-03-29T01:32:25.056Z,7.00
2023-03-29T01:34:58.723Z,6.10
2023-03-29T01:37:29.281Z,7.00
2023-03-29T01:39:56.926Z,7.10
2023-03-29T01:42:48.615Z,6.60
2023-03-29T01:45:58.419Z,7.40
2023-03-29T01:48:32.290Z,8.20
2023-03-29T01:51:05.726Z,7.20
2023-03-29T01:53:40.960Z,7.70
2023-03-29T01:56:12.476Z,7.50
2023-03-29T01:58:44.706Z,6.10
2023-03-29T02:01:17.633Z,7.70
2023-03-29T02:03:49.881Z,8.00
2023-03-29T02:06:20.620Z,6.70
2023-03-29T02:08:48.919Z,7.60
2023-03-29T02:11:17.326Z,8.10
2023-03-29T02:13:44.940Z,7.20
2023-03-29T02:16:13.968Z,8.00
2023-03-29T02:18:44.472Z,9.70
2023-03-29T02:21:28.170Z,8.20
2023-03-29T02:23:58.970Z,8.80
2023-03-29T02:26:27.860Z,9.20
2023-03-29T02:28:56.062Z,9.70
2023-03-29T02:31:37.171Z,10.10
2023-03-29T02:34:19.844Z,9.70
2023-03-29T02:36:54.661Z,9.50
2023-03-29T02:39:24.372Z,8.00
2023-03-29T02:41:53.711Z,8.40
2023-03-29T02:44:24.652Z,9.50
2023-03-29T02:46:56.341Z,9.00
2023-03-29T02:49:24.643Z,8.40
2023-03-29T02:51:54.428Z,7.90
2023-03-29T02:54:25.968Z,8.70
2023-03-29T02:56:58.658Z,7.40
2023-03-29T02:59:27.292Z,8.40
2023-03-29T03:01:54.995Z,9.20
2023-03-29T03:04:23.575Z,7.90
2023-03-29T03:06:51.220Z,9.50
2023-03-29T03:09:19.179Z,8.40
2023-03-29T03:11:47.642Z,8.00
2023-03-29T03:14:16.803Z,8.40
2023-03-29T03:16:44.770Z,7.80
2023-03-29T03:19:12.561Z,8.20
2023-03-29T03:21:40.186Z,12.30
2023-03-29T03:24:07.826Z,10.30
2023-03-29T03:26:36.027Z,8.40
2023-03-29T03:29:05.414Z,8.00
2023-03-29T03:31:53.940Z,8.20
2023-03-29T03:34:40.829Z,8.40
2023-03-29T03:37:08.443Z,9.90
2023-03-29T03:39:36.817Z,7.50
2023-03-29T03:42:07.962Z,7.90
2023-03-29T03:44:39.428Z,8.40
2023-03-29T03:47:33.965Z,8.80
2023-03-29T03:50:18.563Z,8.80
2023-03-29T03:52:46.513Z,8.40
2023-03-29T03:55:14.507Z,8.80
2023-03-29T03:57:47.901Z,9.60
2023-03-29T04:00:20.258Z,8.90
2023-03-29T04:02:54.346Z,10.10
2023-03-29T04:05:22.251Z,10.00
2023-03-29T04:07:50.193Z,9.30
2023-03-29T04:10:56.816Z,10.60
2023-03-29T04:13:30.058Z,9.70
2023-03-29T04:16:24.285Z,10.40
2023-03-29T04:18:52.692Z,10.10
2023-03-29T04:21:22.728Z,13.00
2023-03-29T04:23:50.490Z,12.50
2023-03-29T04:26:18.313Z,11.80
2023-03-29T04:28:48.791Z,12.80
2023-03-29T04:31:21.839Z,14.20
2023-03-29T04:34:15.373Z,13.90
2023-03-29T04:36:46.332Z,15.50
2023-03-29T04:39:19.596Z,16.50
2023-03-29T04:41:50.342Z,16.80
2023-03-29T04:44:21.995Z,16.70
2023-03-29T04:46:49.994Z,17.00
2023-03-29T04:49:37.288Z,18.70
2023-03-29T04:52:09.036Z,19.60
2023-03-29T04:54:38.306Z,18.20
2023-03-29T04:57:17.801Z,19.80
2023-03-29T04:59:59.260Z,21.60
2023-03-29T05:02:51.557Z,20.80
2023-03-29T05:05:19.615Z,20.70
2023-03-29T05:07:47.921Z,23.00
2023-03-29T05:10:16.205Z,22.50
2023-03-29T05:12:44.427Z,23.00
2023-03-29T05:15:12.124Z,22.30
2023-03-29T05:17:39.911Z,22.10
2023-03-29T05:20:13.022Z,30.80
2023-03-29T05:22:41.579Z,22.40
2023-03-29T05:25:11.856Z,21.20
2023-03-29T05:27:41.532Z,21.30
2023-03-29T05:30:11.699Z,22.00
2023-03-29T05:32:50.981Z,22.50
2023-03-29T05:35:25.512Z,20.40
2023-03-29T05:37:53.790Z,19.90
2023-03-29T05:40:21.400Z,18.80
2023-03-29T05:43:15.356Z,19.10
2023-03-29T05:45:43.403Z,20.10
2023-03-29T05:48:11.509Z,20.70
2023-03-29T05:50:42.397Z,21.90
2023-03-29T05:53:10.946Z,20.30
2023-03-29T05:55:41.233Z,23.00
2023-03-29T05:58:12.981Z,19.30
2023-03-29T06:00:42.095Z,18.20
2023-03-29T06:03:27.327Z,20.00
2023-03-29T06:06:00.458Z,21.70
2023-03-29T06:08:29.224Z,18.10
2023-03-29T06:11:13.335Z,16.10
2023-03-29T06:13:59.885Z,15.90
2023-03-29T06:16:28.977Z,13.40
2023-03-29T06:18:56.655Z,13.70
2023-03-29T06:21:26.583Z,12.40
2023-03-29T06:23:55.037Z,14.10
2023-03-29T06:26:24.051Z,13.30
2023-03-29T06:28:52.721Z,16.70
2023-03-29T06:31:21.180Z,15.00
2023-03-29T06:33:51.141Z,14.10
2023-03-29T06:36:39.068Z,13.50
2023-03-29T06:39:07.138Z,12.90
2023-03-29T06:42:20.095Z,12.30
2023-03-29T06:45:16.894Z,11.60
2023-03-29T06:47:47.929Z,12.70
2023-03-29T06:50:17.242Z,14.00
2023-03-29T06:53:07.860Z,15.40
2023-03-29T06:55:36.284Z,12.70
2023-03-29T06:58:24.251Z,10.70
2023-03-29T07:00:53.865Z,10.40
2023-03-29T07:03:28.466Z,10.40
2023-03-29T07:06:03.560Z,13.30
2023-03-29T07:08:32.373Z,10.40
2023-03-29T07:11:03.710Z,9.20
2023-03-29T07:13:52.028Z,8.90
2023-03-29T07:16:21.830Z,7.90
2023-03-29T07:19:01.713Z,8.70
2023-03-29T07:21:49.295Z,8.00
2023-03-29T07:24:17.142Z,7.00
2023-03-29T07:27:00.289Z,12.30
2023-03-29T07:29:32.309Z,12.60
2023-03-29T07:32:00.247Z,9.60
2023-03-29T07:34:43.254Z,11.00
2023-03-29T07:37:17.239Z,7.20
2023-03-29T07:39:45.952Z,6.60
2023-03-29T07:42:36.943Z,6.90
2023-03-29T07:45:06.930Z,6.70
2023-03-29T07:47:38.374Z,6.10
2023-03-29T07:50:07.429Z,6.00
2023-03-29T07:52:36.762Z,6.00
2023-03-29T07:55:06.559Z,5.50
2023-03-29T07:57:54.899Z,6.00
2023-03-29T08:00:24.716Z,6.10
2023-03-29T08:03:07.340Z,7.00
2023-03-29T08:05:41.264Z,5.90
2023-03-29T08:08:15.306Z,6.50
2023-03-29T08:11:08.927Z,6.30
2023-03-29T08:13:53.819Z,6.30
2023-03-29T08:16:27.311Z,6.80
2023-03-29T08:19:08.619Z,7.10
2023-03-29T08:21:56.548Z,7.00
2023-03-29T08:24:25.268Z,9.80
2023-03-29T08:26:57.394Z,6.30
2023-03-29T08:29:27.048Z,6.40
2023-03-29T08:31:58.225Z,7.40
2023-03-29T08:34:25.948Z,7.60
2023-03-29T08:37:12.705Z,5.40
2023-03-29T08:39:44.199Z,3.10
2023-03-29T08:42:44.837Z,4.40
2023-03-29T08:45:27.036Z,4.10
2023-03-29T08:48:18.652Z,3.90
2023-03-29T08:50:52.842Z,4.80
2023-03-29T08:53:41.809Z,4.70
2023-03-29T08:56:24.968Z,4.90
2023-03-29T08:58:57.102Z,4.90
2023-03-29T09:01:30.231Z,4.10
2023-03-29T09:04:10.310Z,9.10
2023-03-29T09:06:48.662Z,6.30
2023-03-29T09:09:25.146Z,5.50
2023-03-29T09:12:04.386Z,4.90
2023-03-29T09:14:42.124Z,5.00
2023-03-29T09:17:19.311Z,2.80
2023-03-29T09:20:09.597Z,4.70
2023-03-29T09:23:12.353Z,5.40
2023-03-29T09:26:22.341Z,4.10
2023-03-29T09:29:02.846Z,3.60
2023-03-29T09:31:36.384Z,5.10
2023-03-29T09:34:18.663Z,4.40
2023-03-29T09:37:24.703Z,4.90
2023-03-29T09:39:53.390Z,4.50
2023-03-29T09:42:24.158Z,5.80
2023-03-29T09:44:54.618Z,4.40
2023-03-29T09:47:39.444Z,4.40
2023-03-29T09:50:27.784Z,3.80
2023-03-29T09:52:59.732Z,3.40
2023-03-29T09:55:31.250Z,3.40
2023-03-29T09:58:27.617Z,3.50
2023-03-29T10:01:00.860Z,3.70
2023-03-29T10:03:31.308Z,3.90
2023-03-29T10:06:08.594Z,6.10
2023-03-29T10:08:40.803Z,4.00
2023-03-29T10:11:18.346Z,3.80
2023-03-29T10:13:49.310Z,3.00
2023-03-29T10:16:38.388Z,4.50
2023-03-29T10:19:35.710Z,3.80
2023-03-29T10:22:14.152Z,3.60
2023-03-29T10:24:47.856Z,4.50
2023-03-29T10:27:19.828Z,3.10
2023-03-29T10:29:47.661Z,3.50
2023-03-29T10:32:36.760Z,3.60
2023-03-29T10:35:24.921Z,3.60
2023-03-29T10:37:56.388Z,4.40
2023-03-29T10:40:33.873Z,3.70
2023-03-29T10:43:12.901Z,3.40
2023-03-29T10:45:42.462Z,3.30
2023-03-29T10:48:12.998Z,3.40
2023-03-29T10:50:41.490Z,3.20
2023-03-29T10:53:26.207Z,3.60
2023-03-29T10:55:59.811Z,4.00
2023-03-29T10:58:56.691Z,3.90
2023-03-29T11:01:45.715Z,3.20
2023-03-29T11:04:23.941Z,3.20
2023-03-29T11:06:59.301Z,4.10
2023-03-29T11:10:04.407Z,3.60
2023-03-29T11:12:34.922Z,3.80
2023-03-29T11:15:14.647Z,4.60
2023-03-29T11:18:09.656Z,4.90
2023-03-29T11:20:55.877Z,3.80
2023-03-29T11:23:48.160Z,3.60
2023-03-29T11:26:22.520Z,3.30
2023-03-29T11:28:53.063Z,3.00
2023-03-29T11:31:31.088Z,3.10
2023-03-29T11:34:25.959Z,3.90
2023-03-29T11:36:59.379Z,22.00
2023-03-29T11:39:36.900Z,6.30
2023-03-29T11:42:11.845Z,3.30
2023-03-29T11:44:40.873Z,2.80
2023-03-29T11:47:13.323Z,3.20
2023-03-29T11:49:53.072Z,3.40
2023-03-29T11:52:47.202Z,3.20
2023-03-29T11:55:23.566Z,2.70
2023-03-29T11:57:59.989Z,3.40
2023-03-29T12:00:31.269Z,4.20
2023-03-29T12:03:34.416Z,3.20
2023-03-29T12:06:23.993Z,3.30
2023-03-29T12:09:05.358Z,3.20
2023-03-29T12:11:47.086Z,3.90
2023-03-29T12:14:26.717Z,3.30
2023-03-29T12:17:08.504Z,3.20
2023-03-29T12:19:43.707Z,2.70
2023-03-29T12:22:11.538Z,3.20
2023-03-29T12:24:45.884Z,3.20
2023-03-29T12:27:44.210Z,3.30
2023-03-29T12:30:39.988Z,3.80
2023-03-29T12:33:15.868Z,3.00
2023-03-29T12:36:47.480Z,3.10
2023-03-29T12:39:34.144Z,3.00
2023-03-29T12:42:22.789Z,3.10
2023-03-29T12:45:20.026Z,4.00
2023-03-29T12:47:50.983Z,3.90
2023-03-29T12:50:28.499Z,3.40
2023-03-29T12:53:33.402Z,4.80
2023-03-29T12:56:01.156Z,3.60
2023-03-29T12:58:42.908Z,4.30
2023-03-29T13:01:23.837Z,4.00
2023-03-29T13:04:00.448Z,3.30
2023-03-29T13:06:30.388Z,4.00
2023-03-29T13:09:31.122Z,3.80
2023-03-29T13:12:07.878Z,3.00
2023-03-29T13:14:37.524Z,3.30
2023-03-29T13:17:17.620Z,3.50
2023-03-29T13:20:19.978Z,3.20
2023-03-29T13:22:59.401Z,3.20
2023-03-29T13:25:41.170Z,2.60
2023-03-29T13:28:29.216Z,2.80
2023-03-29T13:31:17.533Z,2.90
2023-03-29T13:33:49.506Z,3.00
2023-03-29T13:36:23.369Z,3.40
2023-03-29T13:38:53.546Z,3.30
2023-03-29T13:41:31.199Z,4.10
2023-03-29T13:43:59.402Z,3.80
2023-03-29T13:46:41.059Z,4.60
2023-03-29T13:49:17.182Z,4.00
2023-03-29T13:52:12.591Z,4.20
2023-03-29T13:54:50.690Z,2.80
2023-03-29T13:57:41.798Z,3.20
2023-03-29T14:00:17.796Z,4.00
2023-03-29T14:02:57.576Z,3.70
2023-03-29T14:05:31.536Z,2.80
2023-03-29T14:08:06.823Z,9.90
2023-03-29T14:10:42.674Z,4.60
2023-03-29T14:13:14.876Z,3.90
2023-03-29T14:15:49.422Z,7.80
2023-03-29T14:18:19.906Z,13.80
2023-03-29T14:20:53.534Z,11.10
2023-03-29T14:23:26.197Z,4.00
2023-03-29T14:25:53.932Z,4.50
2023-03-29T14:28:24.399Z,5.50
2023-03-29T14:30:52.849Z,2.70
2023-03-29T14:33:34.359Z,6.00
2023-03-29T14:36:04.189Z,5.20
2023-03-29T14:38:32.250Z,13.50
2023-03-29T14:41:01.169Z,6.50
2023-03-29T14:43:31.910Z,3.80
2023-03-29T14:46:02.867Z,3.10
2023-03-29T14:48:33.138Z,3.70
2023-03-29T14:51:01.025Z,3.80
2023-03-29T14:53:31.961Z,2.90
2023-03-29T14:55:59.856Z,3.00
2023-03-29T14:58:36.875Z,3.50
2023-03-29T15:01:07.972Z,4.10
2023-03-29T15:03:43.966Z,3.80
2023-03-29T15:06:12.923Z,4.40
2023-03-29T15:08:48.232Z,3.40
2023-03-29T15:11:30.755Z,4.00
2023-03-29T15:14:03.208Z,4.00
2023-03-29T15:16:31.441Z,3.70
2023-03-29T15:19:01.545Z,4.60
2023-03-29T15:21:34.425Z,4.10
2023-03-29T15:24:03.579Z,3.70
2023-03-29T15:26:36.610Z,6.00
2023-03-29T15:29:13.840Z,4.70
2023-03-29T15:31:42.192Z,4.50
2023-03-29T15:34:14.790Z,13.10
2023-03-29T15:36:45.170Z,10.40
2023-03-29T15:39:14.388Z,4.10
2023-03-29T15:41:43.049Z,5.80
2023-03-29T15:44:11.241Z,13.50
2023-03-29T15:46:38.912Z,6.10
2023-03-29T15:49:11.150Z,4.50
2023-03-29T15:51:39.127Z,7.40
2023-03-29T15:54:07.783Z,13.40
2023-03-29T15:56:43.515Z,11.30
2023-03-29T15:59:12.325Z,6.00
2023-03-29T16:01:41.734Z,7.10
2023-03-29T16:04:16.566Z,9.30
2023-03-29T16:06:48.594Z,5.60
2023-03-29T16:09:16.872Z,6.20
2023-03-29T16:11:45.557Z,5.50
2023-03-29T16:14:23.156Z,6.60
2023-03-29T16:16:52.357Z,4.90
2023-03-29T16:19:20.141Z,6.20
2023-03-29T16:21:48.301Z,4.40
2023-03-29T16:24:19.597Z,7.70
2023-03-29T16:26:48.109Z,6.10
2023-03-29T16:29:18.736Z,5.10
2023-03-29T16:31:47.463Z,6.00
2023-03-29T16:34:16.371Z,7.10
2023-03-29T16:36:44.314Z,4.80
2023-03-29T16:39:15.992Z,5.50
2023-03-29T16:41:45.178Z,5.40
2023-03-29T16:44:18.603Z,5.90
2023-03-29T16:46:47.766Z,5.60
2023-03-29T16:49:18.073Z,4.80
2023-03-29T16:51:46.933Z,9.30
2023-03-29T16:54:17.106Z,7.30
2023-03-29T16:56:44.799Z,5.40
2023-03-29T16:59:12.625Z,5.40
2023-03-29T17:01:40.854Z,6.00
2023-03-29T17:04:09.017Z,4.90
2023-03-29T17:06:36.950Z,5.10
2023-03-29T17:09:05.261Z,6.80
2023-03-29T17:11:33.736Z,6.30
2023-03-29T17:14:01.622Z,6.80
2023-03-29T17:16:29.451Z,6.00
2023-03-29T17:19:00.415Z,5.50
2023-03-29T17:21:29.233Z,7.10
2023-03-29T17:23:57.303Z,4.80
2023-03-29T17:26:26.006Z,4.80
2023-03-29T17:28:53.944Z,5.30
2023-03-29T17:31:21.789Z,5.60
2023-03-29T17:33:52.194Z,7.10
2023-03-29T17:36:24.277Z,5.80
2023-03-29T17:38:52.275Z,5.90
2023-03-29T17:41:21.526Z,6.40
2023-03-29T17:43:50.959Z,6.40
2023-03-29T17:46:23.026Z,6.40
2023-03-29T17:48:51.256Z,6.30
2023-03-29T17:51:19.837Z,6.80
2023-03-29T17:53:47.490Z,6.70
2023-03-29T17:56:16.205Z,7.40
2023-03-29T17:58:44.005Z,7.40
2023-03-29T18:01:13.129Z,9.50
2023-03-29T18:03:41.370Z,8.40
2023-03-29T18:06:09.265Z,11.30
2023-03-29T18:08:37.519Z,12.10
2023-03-29T18:11:13.085Z,9.70
2023-03-29T18:13:41.026Z,9.80
2023-03-29T18:16:09.099Z,10.60
2023-03-29T18:18:38.493Z,11.20
2023-03-29T18:21:10.072Z,11.70
2023-03-29T18:23:43.101Z,10.30
2023-03-29T18:26:12.272Z,10.00
2023-03-29T18:28:40.438Z,8.80
2023-03-29T18:31:08.227Z,9.30
2023-03-29T18:33:36.359Z,10.60
2023-03-29T18:36:08.524Z,11.20
2023-03-29T18:38:40.654Z,10.00
2023-03-29T18:41:09.171Z,10.40
2023-03-29T18:43:38.802Z,10.10
2023-03-29T18:46:07.738Z,9.90
2023-03-29T18:48:38.960Z,9.10
2023-03-29T18:51:08.428Z,10.20
2023-03-29T18:53:37.520Z,11.40
2023-03-29T18:56:06.537Z,12.40
2023-03-29T18:58:35.006Z,11.60
2023-03-29T19:01:04.542Z,11.40
2023-03-29T19:03:34.418Z,10.00
2023-03-29T19:06:03.422Z,11.00
2023-03-29T19:08:32.976Z,11.20
2023-03-29T19:11:02.779Z,10.10
2023-03-29T19:13:30.459Z,10.10
2023-03-29T19:15:58.197Z,11.60
2023-03-29T19:18:26.400Z,10.50
2023-03-29T19:20:54.320Z,10.40
2023-03-29T19:23:27.246Z,10.30
2023-03-29T19:25:57.177Z,10.80
2023-03-29T19:28:24.999Z,10.80
2023-03-29T19:30:52.896Z,11.40
2023-03-29T19:33:20.786Z,11.80
2023-03-29T19:35:50.347Z,14.20
2023-03-29T19:38:19.220Z,13.00
2023-03-29T19:40:48.110Z,13.70
2023-03-29T19:43:20.718Z,13.50
2023-03-29T19:45:50.122Z,15.20
2023-03-29T19:48:23.687Z,14.30
2023-03-29T19:50:52.279Z,15.10
2023-03-29T19:53:19.945Z,15.40
2023-03-29T19:55:49.417Z,15.80
2023-03-29T19:58:17.081Z,15.60
2023-03-29T20:00:44.710Z,15.70
2023-03-29T20:03:14.078Z,20.80
2023-03-29T20:05:42.346Z,27.10
2023-03-29T20:08:09.949Z,26.80
2023-03-29T20:10:37.563Z,25.00
2023-03-29T20:13:06.637Z,21.00
2023-03-29T20:15:34.951Z,20.20
2023-03-29T20:18:03.497Z,20.70
2023-03-29T20:20:31.831Z,19.80
2023-03-29T20:23:04.689Z,23.30
2023-03-29T20:25:36.305Z,20.50
2023-03-29T20:28:04.735Z,21.70
2023-03-29T20:30:32.419Z,18.40
2023-03-29T20:33:00.228Z,17.10
2023-03-29T20:35:28.037Z,17.10
2023-03-29T20:37:56.120Z,17.80
2023-03-29T20:40:23.739Z,16.50
2023-03-29T20:42:51.443Z,17.30
2023-03-29T20:45:19.203Z,16.10
2023-03-29T20:47:57.590Z,15.80
2023-03-29T20:50:26.311Z,16.50
2023-03-29T20:52:54.660Z,16.10
2023-03-29T20:55:23.397Z,15.60
2023-03-29T20:57:54.143Z,15.80
2023-03-29T21:00:22.507Z,15.70
2023-03-29T21:02:50.312Z,15.90
2023-03-29T21:05:18.758Z,15.50
2023-03-29T21:07:48.003Z,15.70
2023-03-29T21:10:15.812Z,16.10
2023-03-29T21:12:43.445Z,15.40
2023-03-29T21:15:13.314Z,15.00
2023-03-29T21:17:41.357Z,15.10
2023-03-29T21:20:12.188Z,15.60
2023-03-29T21:22:40.630Z,16.30
2023-03-29T21:25:11.148Z,15.00
2023-03-29T21:27:38.771Z,14.60
2023-03-29T21:30:08.415Z,14.60
2023-03-29T21:32:37.256Z,15.10
2023-03-29T21:35:05.462Z,15.40
2023-03-29T21:37:33.058Z,14.60
2023-03-29T21:40:01.228Z,17.00
2023-03-29T21:42:28.820Z,14.50
2023-03-29T21:44:56.767Z,14.90
2023-03-29T21:47:24.412Z,16.40
2023-03-29T21:49:52.080Z,15.50
2023-03-29T21:52:20.292Z,15.00
2023-03-29T21:54:47.879Z,14.50
2023-03-29T21:57:15.672Z,14.50
2023-03-29T21:59:43.363Z,14.20
2023-03-29T22:02:11.070Z,16.00
2023-03-29T22:04:39.114Z,14.70
2023-03-29T22:07:08.230Z,14.20
2023-03-29T22:09:36.409Z,13.60
2023-03-29T22:12:04.782Z,14.90
2023-03-29T22:14:36.460Z,13.00
2023-03-29T22:17:08.308Z,14.60
2023-03-29T22:19:39.542Z,14.40
2023-03-29T22:22:13.557Z,13.40
2023-03-29T22:24:41.946Z,14.20
2023-03-29T22:27:11.058Z,14.10
2023-03-29T22:29:38.844Z,13.40
2023-03-29T22:32:06.901Z,13.30
2023-03-29T22:34:34.859Z,13.10
2023-03-29T22:37:02.478Z,13.10
2023-03-29T22:39:30.132Z,14.00
2023-03-29T22:41:57.814Z,14.30
2023-03-29T22:44:25.567Z,13.90
2023-03-29T22:46:53.166Z,13.20
2023-03-29T22:49:21.053Z,13.60
2023-03-29T22:51:49.478Z,14.50
2023-03-29T22:54:17.376Z,13.50
2023-03-29T22:56:45.205Z,13.70
2023-03-29T22:59:12.848Z,12.80
2023-03-29T23:01:40.544Z,13.40
2023-03-29T23:04:08.229Z,12.90
2023-03-29T23:06:35.950Z,12.90
2023-03-29T23:09:03.613Z,12.60
2023-03-29T23:11:31.699Z,12.90
2023-03-29T23:13:59.320Z,12.90
2023-03-29T23:16:26.997Z,12.70
2023-03-29T23:18:54.773Z,12.60
2023-03-29T23:21:22.950Z,13.40
2023-03-29T23:23:50.692Z,12.40
2023-03-29T23:26:18.608Z,13.40
2023-03-29T23:28:46.476Z,12.60
2023-03-29T23:31:18.372Z,14.00
2023-03-29T23:33:46.214Z,13.70
2023-03-29T23:36:16.302Z,13.70
2023-03-29T23:38:45.568Z,13.80
2023-03-29T23:41:13.821Z,14.00
2023-03-29T23:43:43.039Z,13.30
2023-03-29T23:46:14.169Z,13.40
2023-03-29T23:48:49.238Z,13.40
2023-03-29T23:51:18.863Z,13.50
2023-03-29T23:53:47.345Z,13.30
2023-03-29T23:56:15.232Z,13.10
2023-03-29T23:58:42.858Z,12.80
